sensor_id;sensor_type;location;lat;lon;timestamp;pressure;altitude;pressure_sealevel;temperature
12061;BMP180;6091;51.432;6.880;2022-09-09T00:03:43;100105.00;;;28.50
12061;BMP180;6091;51.432;6.880;2022-09-09T00:06:24;100101.00;;;28.50
12061;BMP180;6091;51.432;6.880;2022-09-09T00:09:17;100100.00;;;28.50
12061;BMP180;6091;51.432;6.880;2022-09-09T00:12:02;100093.00;;;28.50
12061;BMP180;6091;51.432;6.880;2022-09-09T00:14:56;100093.00;;;28.50
12061;BMP180;6091;51.432;6.880;2022-09-09T00:17:56;100109.00;;;28.50
12061;BMP180;6091;51.432;6.880;2022-09-09T00:20:34;100106.00;;;28.50
12061;BMP180;6091;51.432;6.880;2022-09-09T00:23:39;100100.00;;;28.40
12061;BMP180;6091;51.432;6.880;2022-09-09T00:29:14;100112.00;;;28.40
12061;BMP180;6091;51.432;6.880;2022-09-09T00:31:46;100102.00;;;28.40
12061;BMP180;6091;51.432;6.880;2022-09-09T00:34:20;100110.00;;;28.50
12061;BMP180;6091;51.432;6.880;2022-09-09T00:36:52;100108.00;;;28.40
12061;BMP180;6091;51.432;6.880;2022-09-09T00:39:39;100098.00;;;28.40
12061;BMP180;6091;51.432;6.880;2022-09-09T00:42:25;100097.00;;;28.40
12061;BMP180;6091;51.432;6.880;2022-09-09T00:45:19;100101.00;;;28.40
12061;BMP180;6091;51.432;6.880;2022-09-09T00:47:52;100103.00;;;28.40
12061;BMP180;6091;51.432;6.880;2022-09-09T00:50:53;100094.00;;;28.40
12061;BMP180;6091;51.432;6.880;2022-09-09T00:57:06;100114.00;;;28.30
12061;BMP180;6091;51.432;6.880;2022-09-09T01:02:31;100102.00;;;28.40
12061;BMP180;6091;51.432;6.880;2022-09-09T01:05:12;100104.00;;;28.40
12061;BMP180;6091;51.432;6.880;2022-09-09T01:07:48;100092.00;;;28.40
12061;BMP180;6091;51.432;6.880;2022-09-09T01:10:35;100101.00;;;28.40
12061;BMP180;6091;51.432;6.880;2022-09-09T01:13:15;100095.00;;;28.40
12061;BMP180;6091;51.432;6.880;2022-09-09T01:15:45;100094.00;;;28.40
12061;BMP180;6091;51.432;6.880;2022-09-09T01:18:17;100099.00;;;28.40
12061;BMP180;6091;51.432;6.880;2022-09-09T01:21:04;100097.00;;;28.40
12061;BMP180;6091;51.432;6.880;2022-09-09T01:24:04;100091.00;;;28.40
12061;BMP180;6091;51.432;6.880;2022-09-09T01:26:39;100088.00;;;28.40
12061;BMP180;6091;51.432;6.880;2022-09-09T01:29:14;100085.00;;;28.40
12061;BMP180;6091;51.432;6.880;2022-09-09T01:31:59;100089.00;;;28.40
12061;BMP180;6091;51.432;6.880;2022-09-09T01:34:36;100084.00;;;28.40
12061;BMP180;6091;51.432;6.880;2022-09-09T01:37:09;100085.00;;;28.40
12061;BMP180;6091;51.432;6.880;2022-09-09T01:39:40;100074.00;;;28.50
12061;BMP180;6091;51.432;6.880;2022-09-09T01:42:13;100077.00;;;28.50
12061;BMP180;6091;51.432;6.880;2022-09-09T01:44:41;100079.00;;;28.40
12061;BMP180;6091;51.432;6.880;2022-09-09T01:47:09;100087.00;;;28.40
12061;BMP180;6091;51.432;6.880;2022-09-09T01:49:36;100078.00;;;28.40
12061;BMP180;6091;51.432;6.880;2022-09-09T01:52:03;100081.00;;;28.40
12061;BMP180;6091;51.432;6.880;2022-09-09T01:54:32;100077.00;;;28.50
12061;BMP180;6091;51.432;6.880;2022-09-09T01:57:15;100079.00;;;28.50
12061;BMP180;6091;51.432;6.880;2022-09-09T02:00:11;100078.00;;;28.40
12061;BMP180;6091;51.432;6.880;2022-09-09T02:03:32;100070.00;;;28.40
12061;BMP180;6091;51.432;6.880;2022-09-09T02:08:59;100078.00;;;28.40
12061;BMP180;6091;51.432;6.880;2022-09-09T02:11:55;100075.00;;;28.30
12061;BMP180;6091;51.432;6.880;2022-09-09T02:14:39;100082.00;;;28.30
12061;BMP180;6091;51.432;6.880;2022-09-09T02:17:13;100077.00;;;28.20
12061;BMP180;6091;51.432;6.880;2022-09-09T02:19:48;100076.00;;;28.10
12061;BMP180;6091;51.432;6.880;2022-09-09T02:22:22;100079.00;;;28.10
12061;BMP180;6091;51.432;6.880;2022-09-09T02:24:53;100073.00;;;28.10
12061;BMP180;6091;51.432;6.880;2022-09-09T02:27:22;100078.00;;;28.10
12061;BMP180;6091;51.432;6.880;2022-09-09T02:29:51;100073.00;;;28.10
12061;BMP180;6091;51.432;6.880;2022-09-09T02:32:23;100074.00;;;28.20
12061;BMP180;6091;51.432;6.880;2022-09-09T02:34:59;100069.00;;;28.20
12061;BMP180;6091;51.432;6.880;2022-09-09T02:37:36;100076.00;;;28.20
12061;BMP180;6091;51.432;6.880;2022-09-09T02:40:06;100075.00;;;28.20
12061;BMP180;6091;51.432;6.880;2022-09-09T02:42:47;100080.00;;;28.30
12061;BMP180;6091;51.432;6.880;2022-09-09T02:45:19;100078.00;;;28.30
12061;BMP180;6091;51.432;6.880;2022-09-09T02:48:07;100082.00;;;28.30
12061;BMP180;6091;51.432;6.880;2022-09-09T02:50:55;100084.00;;;28.30
12061;BMP180;6091;51.432;6.880;2022-09-09T02:56:20;100078.00;;;28.30
12061;BMP180;6091;51.432;6.880;2022-09-09T02:58:48;100069.00;;;28.30
12061;BMP180;6091;51.432;6.880;2022-09-09T03:01:16;100070.00;;;28.20
12061;BMP180;6091;51.432;6.880;2022-09-09T03:03:44;100066.00;;;28.30
12061;BMP180;6091;51.432;6.880;2022-09-09T03:06:13;100064.00;;;28.30
12061;BMP180;6091;51.432;6.880;2022-09-09T03:08:40;100075.00;;;28.30
12061;BMP180;6091;51.432;6.880;2022-09-09T03:11:16;100074.00;;;28.30
12061;BMP180;6091;51.432;6.880;2022-09-09T03:13:43;100064.00;;;28.30
12061;BMP180;6091;51.432;6.880;2022-09-09T03:16:10;100067.00;;;28.30
12061;BMP180;6091;51.432;6.880;2022-09-09T03:18:37;100061.00;;;28.30
12061;BMP180;6091;51.432;6.880;2022-09-09T03:21:04;100065.00;;;28.30
12061;BMP180;6091;51.432;6.880;2022-09-09T03:23:31;100073.00;;;28.30
12061;BMP180;6091;51.432;6.880;2022-09-09T03:25:58;100060.00;;;28.30
12061;BMP180;6091;51.432;6.880;2022-09-09T03:28:25;100052.00;;;28.30
12061;BMP180;6091;51.432;6.880;2022-09-09T03:31:02;100059.00;;;28.30
12061;BMP180;6091;51.432;6.880;2022-09-09T03:33:29;100058.00;;;28.30
12061;BMP180;6091;51.432;6.880;2022-09-09T03:35:57;100063.00;;;28.30
12061;BMP180;6091;51.432;6.880;2022-09-09T03:38:25;100062.00;;;28.30
12061;BMP180;6091;51.432;6.880;2022-09-09T03:40:55;100057.00;;;28.30
12061;BMP180;6091;51.432;6.880;2022-09-09T03:43:26;100057.00;;;28.30
12061;BMP180;6091;51.432;6.880;2022-09-09T03:45:54;100048.00;;;28.30
12061;BMP180;6091;51.432;6.880;2022-09-09T03:48:25;100060.00;;;28.30
12061;BMP180;6091;51.432;6.880;2022-09-09T03:50:54;100065.00;;;28.30
12061;BMP180;6091;51.432;6.880;2022-09-09T03:53:28;100052.00;;;28.30
12061;BMP180;6091;51.432;6.880;2022-09-09T03:55:57;100050.00;;;28.30
12061;BMP180;6091;51.432;6.880;2022-09-09T03:58:27;100057.00;;;28.30
12061;BMP180;6091;51.432;6.880;2022-09-09T04:00:56;100057.00;;;28.30
12061;BMP180;6091;51.432;6.880;2022-09-09T04:03:24;100053.00;;;28.30
12061;BMP180;6091;51.432;6.880;2022-09-09T04:05:56;100056.00;;;28.30
12061;BMP180;6091;51.432;6.880;2022-09-09T04:08:24;100046.00;;;28.30
12061;BMP180;6091;51.432;6.880;2022-09-09T04:10:54;100055.00;;;28.30
12061;BMP180;6091;51.432;6.880;2022-09-09T04:13:27;100048.00;;;28.30
12061;BMP180;6091;51.432;6.880;2022-09-09T04:16:01;100048.00;;;28.30
12061;BMP180;6091;51.432;6.880;2022-09-09T04:18:28;100049.00;;;28.30
12061;BMP180;6091;51.432;6.880;2022-09-09T04:20:58;100050.00;;;28.30
12061;BMP180;6091;51.432;6.880;2022-09-09T04:23:27;100050.00;;;28.30
12061;BMP180;6091;51.432;6.880;2022-09-09T04:25:58;100048.00;;;28.30
12061;BMP180;6091;51.432;6.880;2022-09-09T04:28:29;100064.00;;;28.30
12061;BMP180;6091;51.432;6.880;2022-09-09T04:30:57;100054.00;;;28.30
12061;BMP180;6091;51.432;6.880;2022-09-09T04:33:32;100056.00;;;28.30
12061;BMP180;6091;51.432;6.880;2022-09-09T04:36:06;100059.00;;;28.30
12061;BMP180;6091;51.432;6.880;2022-09-09T04:38:33;100057.00;;;28.30
12061;BMP180;6091;51.432;6.880;2022-09-09T04:41:00;100060.00;;;28.30
12061;BMP180;6091;51.432;6.880;2022-09-09T04:43:28;100052.00;;;28.30
12061;BMP180;6091;51.432;6.880;2022-09-09T04:45:55;100054.00;;;28.30
12061;BMP180;6091;51.432;6.880;2022-09-09T04:48:22;100061.00;;;28.30
12061;BMP180;6091;51.432;6.880;2022-09-09T04:51:08;100064.00;;;28.30
12061;BMP180;6091;51.432;6.880;2022-09-09T04:53:36;100058.00;;;28.30
12061;BMP180;6091;51.432;6.880;2022-09-09T04:56:09;100063.00;;;28.30
12061;BMP180;6091;51.432;6.880;2022-09-09T04:58:37;100063.00;;;28.30
12061;BMP180;6091;51.432;6.880;2022-09-09T05:01:12;100054.00;;;28.30
12061;BMP180;6091;51.432;6.880;2022-09-09T05:03:40;100061.00;;;28.30
12061;BMP180;6091;51.432;6.880;2022-09-09T05:06:10;100061.00;;;28.30
12061;BMP180;6091;51.432;6.880;2022-09-09T05:08:41;100064.00;;;28.30
12061;BMP180;6091;51.432;6.880;2022-09-09T05:11:17;100063.00;;;28.30
12061;BMP180;6091;51.432;6.880;2022-09-09T05:13:45;100056.00;;;28.30
12061;BMP180;6091;51.432;6.880;2022-09-09T05:16:14;100063.00;;;28.30
12061;BMP180;6091;51.432;6.880;2022-09-09T05:18:42;100064.00;;;28.30
12061;BMP180;6091;51.432;6.880;2022-09-09T05:21:11;100059.00;;;28.30
12061;BMP180;6091;51.432;6.880;2022-09-09T05:23:39;100057.00;;;28.30
12061;BMP180;6091;51.432;6.880;2022-09-09T05:26:17;100055.00;;;28.40
12061;BMP180;6091;51.432;6.880;2022-09-09T05:28:45;100058.00;;;28.40
12061;BMP180;6091;51.432;6.880;2022-09-09T05:31:16;100054.00;;;28.40
12061;BMP180;6091;51.432;6.880;2022-09-09T05:33:45;100054.00;;;28.40
12061;BMP180;6091;51.432;6.880;2022-09-09T05:36:16;100046.00;;;28.40
12061;BMP180;6091;51.432;6.880;2022-09-09T05:38:44;100046.00;;;28.40
12061;BMP180;6091;51.432;6.880;2022-09-09T05:41:12;100041.00;;;28.40
12061;BMP180;6091;51.432;6.880;2022-09-09T05:43:40;100048.00;;;28.40
12061;BMP180;6091;51.432;6.880;2022-09-09T05:46:10;100045.00;;;28.40
12061;BMP180;6091;51.432;6.880;2022-09-09T05:48:44;100044.00;;;28.40
12061;BMP180;6091;51.432;6.880;2022-09-09T05:51:16;100034.00;;;28.40
12061;BMP180;6091;51.432;6.880;2022-09-09T05:53:45;100049.00;;;28.40
12061;BMP180;6091;51.432;6.880;2022-09-09T05:56:19;100048.00;;;28.40
12061;BMP180;6091;51.432;6.880;2022-09-09T05:58:46;100057.00;;;28.40
12061;BMP180;6091;51.432;6.880;2022-09-09T06:01:23;100047.00;;;28.40
12061;BMP180;6091;51.432;6.880;2022-09-09T06:03:51;100060.00;;;28.40
12061;BMP180;6091;51.432;6.880;2022-09-09T06:06:24;100058.00;;;28.30
12061;BMP180;6091;51.432;6.880;2022-09-09T06:08:55;100065.00;;;28.30
12061;BMP180;6091;51.432;6.880;2022-09-09T06:11:30;100069.00;;;28.30
12061;BMP180;6091;51.432;6.880;2022-09-09T06:14:00;100065.00;;;28.30
12061;BMP180;6091;51.432;6.880;2022-09-09T06:16:30;100066.00;;;28.20
12061;BMP180;6091;51.432;6.880;2022-09-09T06:19:00;100065.00;;;28.20
12061;BMP180;6091;51.432;6.880;2022-09-09T06:21:37;100066.00;;;28.20
12061;BMP180;6091;51.432;6.880;2022-09-09T06:24:05;100064.00;;;28.10
12061;BMP180;6091;51.432;6.880;2022-09-09T06:26:35;100065.00;;;28.10
12061;BMP180;6091;51.432;6.880;2022-09-09T06:29:04;100061.00;;;28.10
12061;BMP180;6091;51.432;6.880;2022-09-09T06:31:34;100070.00;;;28.10
12061;BMP180;6091;51.432;6.880;2022-09-09T06:34:08;100069.00;;;28.10
12061;BMP180;6091;51.432;6.880;2022-09-09T06:36:38;100057.00;;;28.10
12061;BMP180;6091;51.432;6.880;2022-09-09T06:39:06;100070.00;;;28.10
12061;BMP180;6091;51.432;6.880;2022-09-09T06:41:40;100066.00;;;28.10
12061;BMP180;6091;51.432;6.880;2022-09-09T06:44:07;100069.00;;;28.10
12061;BMP180;6091;51.432;6.880;2022-09-09T06:46:34;100069.00;;;28.10
12061;BMP180;6091;51.432;6.880;2022-09-09T06:49:02;100073.00;;;28.20
12061;BMP180;6091;51.432;6.880;2022-09-09T06:51:33;100073.00;;;28.20
12061;BMP180;6091;51.432;6.880;2022-09-09T06:54:03;100075.00;;;28.20
12061;BMP180;6091;51.432;6.880;2022-09-09T06:56:36;100075.00;;;28.20
12061;BMP180;6091;51.432;6.880;2022-09-09T06:59:06;100077.00;;;28.20
12061;BMP180;6091;51.432;6.880;2022-09-09T07:01:38;100074.00;;;28.20
12061;BMP180;6091;51.432;6.880;2022-09-09T07:04:08;100075.00;;;28.20
12061;BMP180;6091;51.432;6.880;2022-09-09T07:06:39;100074.00;;;28.20
12061;BMP180;6091;51.432;6.880;2022-09-09T07:09:11;100078.00;;;28.30
12061;BMP180;6091;51.432;6.880;2022-09-09T07:11:49;100085.00;;;28.30
12061;BMP180;6091;51.432;6.880;2022-09-09T07:14:18;100080.00;;;28.40
12061;BMP180;6091;51.432;6.880;2022-09-09T07:16:46;100080.00;;;28.40
12061;BMP180;6091;51.432;6.880;2022-09-09T07:19:14;100086.00;;;28.40
12061;BMP180;6091;51.432;6.880;2022-09-09T07:21:42;100088.00;;;28.40
12061;BMP180;6091;51.432;6.880;2022-09-09T07:24:10;100085.00;;;28.40
12061;BMP180;6091;51.432;6.880;2022-09-09T07:26:39;100090.00;;;28.40
12061;BMP180;6091;51.432;6.880;2022-09-09T07:29:08;100089.00;;;28.40
12061;BMP180;6091;51.432;6.880;2022-09-09T07:31:38;100086.00;;;28.30
12061;BMP180;6091;51.432;6.880;2022-09-09T07:34:07;100095.00;;;28.30
12061;BMP180;6091;51.432;6.880;2022-09-09T07:36:39;100090.00;;;28.20
12061;BMP180;6091;51.432;6.880;2022-09-09T07:39:13;100095.00;;;28.10
12061;BMP180;6091;51.432;6.880;2022-09-09T07:41:48;100095.00;;;28.00
12061;BMP180;6091;51.432;6.880;2022-09-09T07:44:23;100102.00;;;28.00
12061;BMP180;6091;51.432;6.880;2022-09-09T07:46:51;100105.00;;;27.90
12061;BMP180;6091;51.432;6.880;2022-09-09T07:49:19;100101.00;;;27.90
12061;BMP180;6091;51.432;6.880;2022-09-09T07:51:54;100105.00;;;27.90
12061;BMP180;6091;51.432;6.880;2022-09-09T07:54:21;100103.00;;;27.80
12061;BMP180;6091;51.432;6.880;2022-09-09T07:56:51;100113.00;;;27.80
12061;BMP180;6091;51.432;6.880;2022-09-09T07:59:19;100115.00;;;27.70
12061;BMP180;6091;51.432;6.880;2022-09-09T08:01:49;100108.00;;;27.70
12061;BMP180;6091;51.432;6.880;2022-09-09T08:04:19;100103.00;;;27.60
12061;BMP180;6091;51.432;6.880;2022-09-09T08:06:56;100112.00;;;27.60
12061;BMP180;6091;51.432;6.880;2022-09-09T08:09:24;100108.00;;;27.60
12061;BMP180;6091;51.432;6.880;2022-09-09T08:11:53;100113.00;;;27.50
12061;BMP180;6091;51.432;6.880;2022-09-09T08:14:20;100110.00;;;27.50
12061;BMP180;6091;51.432;6.880;2022-09-09T08:16:49;100115.00;;;27.50
12061;BMP180;6091;51.432;6.880;2022-09-09T08:19:17;100108.00;;;27.50
12061;BMP180;6091;51.432;6.880;2022-09-09T08:21:45;100115.00;;;27.50
12061;BMP180;6091;51.432;6.880;2022-09-09T08:24:13;100112.00;;;27.50
12061;BMP180;6091;51.432;6.880;2022-09-09T08:26:46;100114.00;;;27.50
12061;BMP180;6091;51.432;6.880;2022-09-09T08:29:14;100106.00;;;27.50
12061;BMP180;6091;51.432;6.880;2022-09-09T08:31:48;100118.00;;;27.40
12061;BMP180;6091;51.432;6.880;2022-09-09T08:34:16;100122.00;;;27.40
12061;BMP180;6091;51.432;6.880;2022-09-09T08:36:46;100122.00;;;27.40
12061;BMP180;6091;51.432;6.880;2022-09-09T08:39:16;100108.00;;;27.40
12061;BMP180;6091;51.432;6.880;2022-09-09T08:50:36;100117.00;;;27.50
12061;BMP180;6091;51.432;6.880;2022-09-09T08:53:12;100115.00;;;27.50
12061;BMP180;6091;51.432;6.880;2022-09-09T08:55:51;100115.00;;;27.60
12061;BMP180;6091;51.432;6.880;2022-09-09T08:58:29;100107.00;;;27.70
12061;BMP180;6091;51.432;6.880;2022-09-09T09:07:10;100107.00;;;27.80
12061;BMP180;6091;51.432;6.880;2022-09-09T09:09:56;100111.00;;;27.80
12061;BMP180;6091;51.432;6.880;2022-09-09T09:12:35;100114.00;;;27.80
12061;BMP180;6091;51.432;6.880;2022-09-09T09:15:18;100124.00;;;27.80
12061;BMP180;6091;51.432;6.880;2022-09-09T09:17:46;100123.00;;;27.80
12061;BMP180;6091;51.432;6.880;2022-09-09T09:20:26;100113.00;;;27.80
12061;BMP180;6091;51.432;6.880;2022-09-09T09:23:02;100127.00;;;27.80
12061;BMP180;6091;51.432;6.880;2022-09-09T09:25:42;100122.00;;;27.80
12061;BMP180;6091;51.432;6.880;2022-09-09T09:28:20;100126.00;;;27.70
12061;BMP180;6091;51.432;6.880;2022-09-09T09:31:09;100126.00;;;27.70
12061;BMP180;6091;51.432;6.880;2022-09-09T09:33:54;100128.00;;;27.60
12061;BMP180;6091;51.432;6.880;2022-09-09T09:36:54;100123.00;;;27.60
12061;BMP180;6091;51.432;6.880;2022-09-09T09:39:28;100128.00;;;27.60
12061;BMP180;6091;51.432;6.880;2022-09-09T09:42:17;100126.00;;;27.60
12061;BMP180;6091;51.432;6.880;2022-09-09T09:44:49;100127.00;;;27.60
12061;BMP180;6091;51.432;6.880;2022-09-09T09:47:22;100121.00;;;27.60
12061;BMP180;6091;51.432;6.880;2022-09-09T09:49:58;100125.00;;;27.60
12061;BMP180;6091;51.432;6.880;2022-09-09T09:52:29;100128.00;;;27.60
12061;BMP180;6091;51.432;6.880;2022-09-09T09:54:58;100129.00;;;27.60
12061;BMP180;6091;51.432;6.880;2022-09-09T09:57:34;100127.00;;;27.60
12061;BMP180;6091;51.432;6.880;2022-09-09T10:00:13;100130.00;;;27.60
12061;BMP180;6091;51.432;6.880;2022-09-09T10:02:43;100130.00;;;27.60
12061;BMP180;6091;51.432;6.880;2022-09-09T10:05:23;100139.00;;;27.60
12061;BMP180;6091;51.432;6.880;2022-09-09T10:08:12;100130.00;;;27.60
12061;BMP180;6091;51.432;6.880;2022-09-09T10:22:44;100127.00;;;27.80
12061;BMP180;6091;51.432;6.880;2022-09-09T10:37:00;100114.00;;;27.80
12061;BMP180;6091;51.432;6.880;2022-09-09T10:39:39;100110.00;;;27.80
12061;BMP180;6091;51.432;6.880;2022-09-09T10:42:21;100106.00;;;27.80
12061;BMP180;6091;51.432;6.880;2022-09-09T10:48:39;100111.00;;;27.60
12061;BMP180;6091;51.432;6.880;2022-09-09T10:54:58;100108.00;;;27.40
12061;BMP180;6091;51.432;6.880;2022-09-09T10:57:52;100099.00;;;27.40
12061;BMP180;6091;51.432;6.880;2022-09-09T11:00:40;100101.00;;;27.50
12061;BMP180;6091;51.432;6.880;2022-09-09T11:03:27;100093.00;;;27.50
12061;BMP180;6091;51.432;6.880;2022-09-09T11:06:05;100090.00;;;27.50
12061;BMP180;6091;51.432;6.880;2022-09-09T11:08:38;100088.00;;;27.60
12061;BMP180;6091;51.432;6.880;2022-09-09T11:11:35;100093.00;;;27.60
12061;BMP180;6091;51.432;6.880;2022-09-09T11:14:17;100085.00;;;27.60
12061;BMP180;6091;51.432;6.880;2022-09-09T11:17:03;100080.00;;;27.60
12061;BMP180;6091;51.432;6.880;2022-09-09T11:19:39;100078.00;;;27.70
12061;BMP180;6091;51.432;6.880;2022-09-09T11:22:35;100089.00;;;27.70
12061;BMP180;6091;51.432;6.880;2022-09-09T11:25:15;100089.00;;;27.80
12061;BMP180;6091;51.432;6.880;2022-09-09T11:37:16;100083.00;;;27.90
12061;BMP180;6091;51.432;6.880;2022-09-09T11:42:23;100084.00;;;27.80
12061;BMP180;6091;51.432;6.880;2022-09-09T11:44:51;100087.00;;;27.80
12061;BMP180;6091;51.432;6.880;2022-09-09T11:47:25;100091.00;;;27.80
12061;BMP180;6091;51.432;6.880;2022-09-09T11:50:34;100088.00;;;27.70
12061;BMP180;6091;51.432;6.880;2022-09-09T11:53:21;100084.00;;;27.70
12061;BMP180;6091;51.432;6.880;2022-09-09T11:56:09;100095.00;;;27.60
12061;BMP180;6091;51.432;6.880;2022-09-09T11:58:44;100087.00;;;27.60
12061;BMP180;6091;51.432;6.880;2022-09-09T12:01:33;100098.00;;;27.70
12061;BMP180;6091;51.432;6.880;2022-09-09T12:04:25;100096.00;;;27.80
12061;BMP180;6091;51.432;6.880;2022-09-09T12:09:52;100084.00;;;28.10
12061;BMP180;6091;51.432;6.880;2022-09-09T12:15:23;100095.00;;;28.20
12061;BMP180;6091;51.432;6.880;2022-09-09T12:17:54;100086.00;;;28.20
12061;BMP180;6091;51.432;6.880;2022-09-09T12:20:35;100096.00;;;28.00
12061;BMP180;6091;51.432;6.880;2022-09-09T12:23:30;100102.00;;;28.10
12061;BMP180;6091;51.432;6.880;2022-09-09T12:26:41;100099.00;;;28.00
12061;BMP180;6091;51.432;6.880;2022-09-09T12:29:31;100094.00;;;27.90
12061;BMP180;6091;51.432;6.880;2022-09-09T12:32:17;100086.00;;;28.00
12061;BMP180;6091;51.432;6.880;2022-09-09T12:34:59;100081.00;;;28.20
12061;BMP180;6091;51.432;6.880;2022-09-09T12:40:34;100086.00;;;28.60
12061;BMP180;6091;51.432;6.880;2022-09-09T12:43:24;100063.00;;;28.70
12061;BMP180;6091;51.432;6.880;2022-09-09T12:46:01;100065.00;;;28.70
12061;BMP180;6091;51.432;6.880;2022-09-09T12:48:41;100091.00;;;28.60
12061;BMP180;6091;51.432;6.880;2022-09-09T12:51:31;100094.00;;;28.50
12061;BMP180;6091;51.432;6.880;2022-09-09T12:54:01;100077.00;;;28.50
12061;BMP180;6091;51.432;6.880;2022-09-09T12:56:31;100102.00;;;28.40
12061;BMP180;6091;51.432;6.880;2022-09-09T12:58:59;100104.00;;;28.30
12061;BMP180;6091;51.432;6.880;2022-09-09T13:01:31;100121.00;;;28.20
12061;BMP180;6091;51.432;6.880;2022-09-09T13:04:20;100117.00;;;28.10
12061;BMP180;6091;51.432;6.880;2022-09-09T13:06:48;100111.00;;;28.00
12061;BMP180;6091;51.432;6.880;2022-09-09T13:09:16;100113.00;;;28.00
12061;BMP180;6091;51.432;6.880;2022-09-09T13:11:50;100137.00;;;27.90
12061;BMP180;6091;51.432;6.880;2022-09-09T13:14:38;100119.00;;;27.80
12061;BMP180;6091;51.432;6.880;2022-09-09T13:17:29;100118.00;;;27.80
12061;BMP180;6091;51.432;6.880;2022-09-09T13:20:00;100115.00;;;27.80
12061;BMP180;6091;51.432;6.880;2022-09-09T13:22:37;100118.00;;;27.70
12061;BMP180;6091;51.432;6.880;2022-09-09T13:28:03;100105.00;;;27.70
12061;BMP180;6091;51.432;6.880;2022-09-09T13:31:04;100106.00;;;27.60
12061;BMP180;6091;51.432;6.880;2022-09-09T13:33:37;100095.00;;;27.40
12061;BMP180;6091;51.432;6.880;2022-09-09T13:36:10;100100.00;;;27.50
12061;BMP180;6091;51.432;6.880;2022-09-09T13:39:00;100084.00;;;27.30
12061;BMP180;6091;51.432;6.880;2022-09-09T13:41:35;100084.00;;;27.40
12061;BMP180;6091;51.432;6.880;2022-09-09T13:44:14;100087.00;;;27.40
12061;BMP180;6091;51.432;6.880;2022-09-09T13:47:04;100074.00;;;27.40
12061;BMP180;6091;51.432;6.880;2022-09-09T13:49:38;100074.00;;;27.40
12061;BMP180;6091;51.432;6.880;2022-09-09T13:52:15;100079.00;;;27.30
12061;BMP180;6091;51.432;6.880;2022-09-09T13:54:48;100078.00;;;27.40
12061;BMP180;6091;51.432;6.880;2022-09-09T13:58:02;100082.00;;;27.30
12061;BMP180;6091;51.432;6.880;2022-09-09T14:00:39;100080.00;;;27.40
12061;BMP180;6091;51.432;6.880;2022-09-09T14:03:07;100074.00;;;27.40
12061;BMP180;6091;51.432;6.880;2022-09-09T14:05:46;100030.00;;;27.40
12061;BMP180;6091;51.432;6.880;2022-09-09T14:08:22;100059.00;;;27.40
12061;BMP180;6091;51.432;6.880;2022-09-09T14:10:54;100058.00;;;27.50
12061;BMP180;6091;51.432;6.880;2022-09-09T14:13:30;100069.00;;;27.50
12061;BMP180;6091;51.432;6.880;2022-09-09T14:16:04;100057.00;;;27.50
12061;BMP180;6091;51.432;6.880;2022-09-09T14:18:31;100049.00;;;27.60
12061;BMP180;6091;51.432;6.880;2022-09-09T14:21:02;100042.00;;;27.50
12061;BMP180;6091;51.432;6.880;2022-09-09T14:23:30;100053.00;;;27.60
12061;BMP180;6091;51.432;6.880;2022-09-09T14:25:57;100050.00;;;27.60
12061;BMP180;6091;51.432;6.880;2022-09-09T14:28:24;100048.00;;;27.70
12061;BMP180;6091;51.432;6.880;2022-09-09T14:31:12;100059.00;;;27.70
12061;BMP180;6091;51.432;6.880;2022-09-09T14:33:44;100051.00;;;27.70
12061;BMP180;6091;51.432;6.880;2022-09-09T14:36:18;100016.00;;;27.80
12061;BMP180;6091;51.432;6.880;2022-09-09T14:39:04;100024.00;;;27.70
12061;BMP180;6091;51.432;6.880;2022-09-09T14:41:31;100062.00;;;27.70
12061;BMP180;6091;51.432;6.880;2022-09-09T14:43:58;100050.00;;;27.70
12061;BMP180;6091;51.432;6.880;2022-09-09T14:46:26;100066.00;;;27.60
12061;BMP180;6091;51.432;6.880;2022-09-09T14:49:05;100102.00;;;27.50
12061;BMP180;6091;51.432;6.880;2022-09-09T14:51:34;100098.00;;;27.40
12061;BMP180;6091;51.432;6.880;2022-09-09T14:54:01;100112.00;;;27.30
12061;BMP180;6091;51.432;6.880;2022-09-09T14:56:32;100122.00;;;27.20
12061;BMP180;6091;51.432;6.880;2022-09-09T14:59:02;100116.00;;;27.10
12061;BMP180;6091;51.432;6.880;2022-09-09T15:01:31;100108.00;;;27.00
12061;BMP180;6091;51.432;6.880;2022-09-09T15:04:02;100102.00;;;26.90
12061;BMP180;6091;51.432;6.880;2022-09-09T15:06:34;100109.00;;;26.90
12061;BMP180;6091;51.432;6.880;2022-09-09T15:09:01;100103.00;;;26.80
12061;BMP180;6091;51.432;6.880;2022-09-09T15:11:35;100094.00;;;26.80
12061;BMP180;6091;51.432;6.880;2022-09-09T15:14:09;100099.00;;;26.70
12061;BMP180;6091;51.432;6.880;2022-09-09T15:16:38;100102.00;;;26.70
12061;BMP180;6091;51.432;6.880;2022-09-09T15:19:06;100090.00;;;26.70
12061;BMP180;6091;51.432;6.880;2022-09-09T15:21:38;100094.00;;;26.80
12061;BMP180;6091;51.432;6.880;2022-09-09T15:24:06;100074.00;;;26.80
12061;BMP180;6091;51.432;6.880;2022-09-09T15:26:35;100084.00;;;26.80
12061;BMP180;6091;51.432;6.880;2022-09-09T15:29:05;100081.00;;;26.80
12061;BMP180;6091;51.432;6.880;2022-09-09T15:31:34;100064.00;;;26.90
12061;BMP180;6091;51.432;6.880;2022-09-09T15:34:07;100063.00;;;27.00
12061;BMP180;6091;51.432;6.880;2022-09-09T15:36:39;100065.00;;;27.00
12061;BMP180;6091;51.432;6.880;2022-09-09T15:39:10;100078.00;;;27.00
12061;BMP180;6091;51.432;6.880;2022-09-09T15:41:44;100079.00;;;27.00
12061;BMP180;6091;51.432;6.880;2022-09-09T15:44:13;100070.00;;;27.00
12061;BMP180;6091;51.432;6.880;2022-09-09T15:46:42;100078.00;;;27.00
12061;BMP180;6091;51.432;6.880;2022-09-09T15:49:19;100076.00;;;27.00
12061;BMP180;6091;51.432;6.880;2022-09-09T15:51:55;100077.00;;;27.10
12061;BMP180;6091;51.432;6.880;2022-09-09T15:54:25;100080.00;;;27.10
12061;BMP180;6091;51.432;6.880;2022-09-09T15:56:58;100073.00;;;27.10
12061;BMP180;6091;51.432;6.880;2022-09-09T15:59:30;100067.00;;;27.10
12061;BMP180;6091;51.432;6.880;2022-09-09T16:01:59;100068.00;;;27.20
12061;BMP180;6091;51.432;6.880;2022-09-09T16:04:29;100080.00;;;27.20
12061;BMP180;6091;51.432;6.880;2022-09-09T16:07:00;100084.00;;;27.20
12061;BMP180;6091;51.432;6.880;2022-09-09T16:09:35;100080.00;;;27.20
12061;BMP180;6091;51.432;6.880;2022-09-09T16:12:04;100081.00;;;27.20
12061;BMP180;6091;51.432;6.880;2022-09-09T16:14:34;100084.00;;;27.20
12061;BMP180;6091;51.432;6.880;2022-09-09T16:17:07;100076.00;;;27.20
12061;BMP180;6091;51.432;6.880;2022-09-09T16:19:37;100086.00;;;27.20